Time;durP1;ratioP1;P1;durP2;ratioP2;P2;SDS_P1;SDS_P2;PMS_P1;PMS_P2;Temp;Humidity;BMP_temperature;BMP_pressure;BME280_temperature;BME280_humidity;BME280_pressure;Samples;Min_cycle;Max_cycle;Signal;HPM_P1;HPM_P2
2021/06/21 00:02:22;;;;;;;14.30;4.43;;;;;;;;;;6254123;22;20290;-82
2021/06/21 00:04:49;;;;;;;10.18;4.60;;;;;;;;;;6254497;22;20050;-81
2021/06/21 00:07:16;;;;;;;7.85;4.60;;;;;;;;;;6281546;22;20035;-81
2021/06/21 00:10:04;;;;;;;12.27;4.35;;;;;;;;;;6282854;22;20047;-81
2021/06/21 00:12:32;;;;;;;10.77;4.68;;;;;;;;;;6255206;22;20034;-83
2021/06/21 00:14:58;;;;;;;10.95;4.53;;;;;;;;;;6285161;22;20095;-81
2021/06/21 00:17:37;;;;;;;12.35;4.85;;;;;;;;;;6258109;22;20031;-81
2021/06/21 00:20:05;;;;;;;11.85;5.55;;;;;;;;;;6281497;22;20028;-82
2021/06/21 00:22:31;;;;;;;14.25;5.72;;;;;;;;;;6254664;22;20032;-82
2021/06/21 00:24:58;;;;;;;14.85;5.38;;;;;;;;;;6280955;22;20024;-81
2021/06/21 00:27:25;;;;;;;13.68;5.80;;;;;;;;;;6252487;22;20024;-80
2021/06/21 00:29:52;;;;;;;12.38;5.53;;;;;;;;;;6277824;22;20468;-81
2021/06/21 00:32:18;;;;;;;8.75;5.53;;;;;;;;;;6279875;22;20043;-80
2021/06/21 00:34:45;;;;;;;11.25;4.90;;;;;;;;;;6252488;22;20034;-80
2021/06/21 00:37:18;;;;;;;10.05;5.03;;;;;;;;;;6280947;22;20028;-81
2021/06/21 00:39:45;;;;;;;9.82;4.40;;;;;;;;;;6281164;22;20298;-81
2021/06/21 00:42:12;;;;;;;13.25;4.70;;;;;;;;;;6287043;22;20125;-85
2021/06/21 00:44:38;;;;;;;9.90;4.80;;;;;;;;;;6261895;22;20329;-85
2021/06/21 00:47:05;;;;;;;15.20;4.72;;;;;;;;;;6287378;22;20081;-85
2021/06/21 00:49:31;;;;;;;11.45;5.10;;;;;;;;;;6267327;22;20050;-85
2021/06/21 00:51:58;;;;;;;9.88;4.18;;;;;;;;;;6302155;22;20456;-83
2021/06/21 00:54:27;;;;;;;6.68;4.05;;;;;;;;;;6275516;22;20037;-85
2021/06/21 00:56:54;;;;;;;7.90;4.22;;;;;;;;;;6301209;22;20011;-85
2021/06/21 00:59:21;;;;;;;9.15;4.15;;;;;;;;;;6275696;22;20028;-85
2021/06/21 01:01:49;;;;;;;11.35;4.45;;;;;;;;;;6301196;22;20043;-83
2021/06/21 01:04:18;;;;;;;9.98;4.47;;;;;;;;;;6293964;22;20023;-85
2021/06/21 01:06:46;;;;;;;11.10;4.45;;;;;;;;;;6286859;22;20108;-85
2021/06/21 01:09:13;;;;;;;10.40;4.10;;;;;;;;;;6259941;22;20082;-85
2021/06/21 01:11:51;;;;;;;8.77;4.07;;;;;;;;;;6259679;22;20038;-85
2021/06/21 01:14:22;;;;;;;11.70;3.60;;;;;;;;;;6261895;22;20028;-85
2021/06/21 01:16:56;;;;;;;11.93;3.67;;;;;;;;;;6293143;22;20023;-85
2021/06/21 01:19:23;;;;;;;8.05;3.65;;;;;;;;;;6287617;22;20019;-85
2021/06/21 01:21:56;;;;;;;10.13;3.55;;;;;;;;;;6267396;22;20027;-84
2021/06/21 01:24:41;;;;;;;12.70;4.07;;;;;;;;;;6275470;22;20012;-85
2021/06/21 01:27:28;;;;;;;9.68;3.95;;;;;;;;;;6264705;22;20071;-85
2021/06/21 01:30:07;;;;;;;9.25;3.88;;;;;;;;;;6286266;22;20034;-85
2021/06/21 01:32:41;;;;;;;10.57;4.28;;;;;;;;;;6286162;22;20031;-85
2021/06/21 01:35:15;;;;;;;14.32;3.85;;;;;;;;;;6286761;22;20023;-85
2021/06/21 01:37:43;;;;;;;8.30;4.47;;;;;;;;;;6267827;22;20034;-85
2021/06/21 01:40:11;;;;;;;18.30;4.32;;;;;;;;;;6291995;22;20020;-85
2021/06/21 01:42:38;;;;;;;8.93;4.05;;;;;;;;;;6289779;22;20024;-85
2021/06/21 01:45:07;;;;;;;11.18;4.55;;;;;;;;;;6262669;22;20127;-85
2021/06/21 01:47:34;;;;;;;13.48;4.43;;;;;;;;;;6286359;22;20393;-85
2021/06/21 01:50:01;;;;;;;10.50;4.60;;;;;;;;;;6259143;22;20028;-86
2021/06/21 01:52:48;;;;;;;14.63;4.45;;;;;;;;;;6259329;22;20023;-86
2021/06/21 01:55:15;;;;;;;11.68;4.25;;;;;;;;;;6285507;22;20100;-85
2021/06/21 01:57:44;;;;;;;10.30;4.43;;;;;;;;;;6259635;22;20039;-84
2021/06/21 02:00:11;;;;;;;18.58;5.80;;;;;;;;;;6264185;22;20145;-84
2021/06/21 02:02:40;;;;;;;11.15;4.72;;;;;;;;;;6290811;22;20079;-84
2021/06/21 02:05:07;;;;;;;12.57;4.93;;;;;;;;;;6289755;22;20350;-84
2021/06/21 02:07:34;;;;;;;14.98;5.40;;;;;;;;;;6285955;22;20076;-85
2021/06/21 02:10:02;;;;;;;11.07;4.43;;;;;;;;;;6258382;22;20020;-84
2021/06/21 02:12:33;;;;;;;9.38;4.70;;;;;;;;;;6258447;22;20023;-85
2021/06/21 02:15:00;;;;;;;13.38;4.93;;;;;;;;;;6285501;22;20023;-83
2021/06/21 02:17:27;;;;;;;10.10;4.43;;;;;;;;;;6286600;22;20020;-84
2021/06/21 02:20:08;;;;;;;11.57;4.68;;;;;;;;;;6260025;22;20108;-84
2021/06/21 02:22:35;;;;;;;12.20;4.65;;;;;;;;;;6261555;22;20027;-84
2021/06/21 02:25:06;;;;;;;9.30;4.82;;;;;;;;;;6260770;22;20030;-84
2021/06/21 02:27:43;;;;;;;14.05;4.95;;;;;;;;;;6287338;22;20360;-83
2021/06/21 02:30:13;;;;;;;8.35;4.63;;;;;;;;;;6285621;22;20024;-84
2021/06/21 02:32:44;;;;;;;11.75;4.68;;;;;;;;;;6254566;23;20084;-84
2021/06/21 02:38:51;;;;;;;9.68;4.43;;;;;;;;;;6254500;23;20075;-83
2021/06/21 02:41:18;;;;;;;13.30;4.70;;;;;;;;;;6251338;23;20190;-82
2021/06/21 02:43:47;;;;;;;11.77;3.97;;;;;;;;;;6249448;23;20088;-83
2021/06/21 02:46:14;;;;;;;12.52;5.25;;;;;;;;;;6253114;22;20034;-81
2021/06/21 02:48:40;;;;;;;10.27;4.82;;;;;;;;;;6251512;23;20058;-80
2021/06/21 02:51:11;;;;;;;14.85;5.07;;;;;;;;;;6252002;23;20028;-80
2021/06/21 02:53:40;;;;;;;12.25;5.72;;;;;;;;;;6255426;22;20453;-80
2021/06/21 02:56:16;;;;;;;11.68;5.38;;;;;;;;;;6255857;22;20076;-80
2021/06/21 02:58:47;;;;;;;11.88;5.88;;;;;;;;;;6255823;23;20024;-79
2021/06/21 03:01:15;;;;;;;11.60;5.45;;;;;;;;;;6256067;23;20017;-79
2021/06/21 03:03:46;;;;;;;18.65;6.22;;;;;;;;;;6256032;22;20043;-79
2021/06/21 03:06:14;;;;;;;20.65;5.68;;;;;;;;;;6256467;22;20024;-79
2021/06/21 03:08:41;;;;;;;12.68;6.30;;;;;;;;;;6256430;22;20028;-79
2021/06/21 03:11:08;;;;;;;13.25;6.65;;;;;;;;;;6254827;22;20028;-79
2021/06/21 03:13:36;;;;;;;14.68;6.25;;;;;;;;;;6256908;22;20406;-79
2021/06/21 03:16:06;;;;;;;11.50;6.53;;;;;;;;;;6254344;23;20039;-79
2021/06/21 03:18:33;;;;;;;10.48;6.03;;;;;;;;;;6253479;23;20031;-80
2021/06/21 03:21:03;;;;;;;17.25;6.20;;;;;;;;;;6255931;22;20028;-81
2021/06/21 03:23:30;;;;;;;11.48;6.90;;;;;;;;;;6255140;23;20062;-82
2021/06/21 03:25:58;;;;;;;13.02;7.45;;;;;;;;;;6255058;22;20028;-81
2021/06/21 03:28:26;;;;;;;11.57;5.72;;;;;;;;;;6255216;22;20095;-81
2021/06/21 03:30:59;;;;;;;19.67;7.43;;;;;;;;;;6249995;22;20108;-82
2021/06/21 03:33:25;;;;;;;10.13;7.60;;;;;;;;;;6247047;23;20123;-82
2021/06/21 03:35:53;;;;;;;12.75;7.35;;;;;;;;;;6247005;23;20024;-82
2021/06/21 03:38:24;;;;;;;14.10;7.25;;;;;;;;;;6249762;22;20084;-82
2021/06/21 03:40:51;;;;;;;16.23;7.72;;;;;;;;;;6250819;22;20032;-82
2021/06/21 03:43:19;;;;;;;12.70;7.45;;;;;;;;;;6249850;23;20088;-83
2021/06/21 03:45:47;;;;;;;11.52;7.50;;;;;;;;;;6251987;22;20059;-82
2021/06/21 03:48:13;;;;;;;11.93;7.97;;;;;;;;;;6252154;22;20107;-82
2021/06/21 03:50:47;;;;;;;12.55;7.53;;;;;;;;;;6251273;22;20028;-83
2021/06/21 03:53:17;;;;;;;17.50;7.60;;;;;;;;;;6251373;23;20039;-84
2021/06/21 03:55:43;;;;;;;10.40;7.95;;;;;;;;;;6252903;23;20031;-83
2021/06/21 03:58:11;;;;;;;13.52;7.80;;;;;;;;;;6252119;23;20416;-84
2021/06/21 04:00:37;;;;;;;19.88;8.25;;;;;;;;;;6252718;23;20049;-84
2021/06/21 04:03:08;;;;;;;11.00;7.88;;;;;;;;;;6253814;22;20276;-84
2021/06/21 04:05:37;;;;;;;16.58;8.95;;;;;;;;;;6253152;23;20062;-84
2021/06/21 04:08:08;;;;;;;15.23;8.57;;;;;;;;;;6253479;22;20024;-84
2021/06/21 04:10:37;;;;;;;16.80;9.18;;;;;;;;;;6251917;23;20020;-84
2021/06/21 04:13:04;;;;;;;12.70;7.90;;;;;;;;;;6253851;23;20031;-84
2021/06/21 04:15:31;;;;;;;21.63;7.60;;;;;;;;;;6253021;23;20073;-83
2021/06/21 04:17:58;;;;;;;12.70;8.55;;;;;;;;;;6251295;23;20028;-83
2021/06/21 04:20:26;;;;;;;12.70;8.45;;;;;;;;;;6251011;23;20107;-83
2021/06/21 04:23:00;;;;;;;12.95;8.23;;;;;;;;;;6253603;23;20063;-83
2021/06/21 04:25:27;;;;;;;10.98;7.97;;;;;;;;;;6253172;22;20028;-82
2021/06/21 04:27:53;;;;;;;17.30;8.68;;;;;;;;;;6254185;23;20034;-83
2021/06/21 04:30:51;;;;;;;11.60;8.35;;;;;;;;;;6253826;23;20059;-84
2021/06/21 04:33:18;;;;;;;15.23;7.90;;;;;;;;;;6260189;22;20035;-83
2021/06/21 04:35:45;;;;;;;12.45;7.43;;;;;;;;;;6259002;22;20373;-83
2021/06/21 04:38:12;;;;;;;12.38;7.47;;;;;;;;;;6259306;22;20038;-84
2021/06/21 04:40:40;;;;;;;11.77;7.80;;;;;;;;;;6286872;22;20108;-84
2021/06/21 04:43:09;;;;;;;12.00;7.80;;;;;;;;;;6259604;22;20027;-83
2021/06/21 04:45:39;;;;;;;15.98;8.70;;;;;;;;;;6267032;22;20054;-84
2021/06/21 04:48:06;;;;;;;12.57;7.45;;;;;;;;;;6294747;22;20024;-84
2021/06/21 04:50:37;;;;;;;11.13;7.25;;;;;;;;;;6286148;22;20024;-84
2021/06/21 04:53:05;;;;;;;14.30;7.85;;;;;;;;;;6254204;22;20023;-83
2021/06/21 04:55:48;;;;;;;12.98;7.43;;;;;;;;;;6285111;22;20031;-83
2021/06/21 04:58:14;;;;;;;8.88;7.03;;;;;;;;;;6253321;22;20038;-83
2021/06/21 05:00:41;;;;;;;9.07;6.13;;;;;;;;;;6253069;22;20138;-83
2021/06/21 05:03:11;;;;;;;9.93;7.38;;;;;;;;;;6255336;22;20251;-83
2021/06/21 05:05:38;;;;;;;11.75;6.72;;;;;;;;;;6252847;22;20031;-83
2021/06/21 05:08:05;;;;;;;11.00;6.85;;;;;;;;;;6253378;22;20030;-83
2021/06/21 05:10:32;;;;;;;9.38;6.97;;;;;;;;;;6254449;22;20028;-83
2021/06/21 05:13:02;;;;;;;8.68;6.25;;;;;;;;;;6254620;22;20027;-83
2021/06/21 05:15:29;;;;;;;11.15;6.13;;;;;;;;;;6251131;22;20153;-83
2021/06/21 05:17:55;;;;;;;11.25;6.90;;;;;;;;;;6251121;22;20090;-82
2021/06/21 05:20:23;;;;;;;7.15;6.15;;;;;;;;;;6279504;22;20024;-83
2021/06/21 05:22:51;;;;;;;9.75;6.30;;;;;;;;;;6276786;22;20409;-83
2021/06/21 05:25:19;;;;;;;9.02;7.00;;;;;;;;;;6250878;22;20023;-83
2021/06/21 05:27:46;;;;;;;8.32;6.35;;;;;;;;;;6251858;22;20055;-83
2021/06/21 05:30:14;;;;;;;7.13;6.43;;;;;;;;;;6277450;22;20023;-83
2021/06/21 05:32:41;;;;;;;8.30;6.60;;;;;;;;;;6277833;22;20058;-83
2021/06/21 05:35:10;;;;;;;7.32;5.95;;;;;;;;;;6251792;22;20167;-83
2021/06/21 05:37:55;;;;;;;10.07;7.20;;;;;;;;;;6249608;22;20028;-82
2021/06/21 05:40:21;;;;;;;10.65;6.50;;;;;;;;;;6275428;22;20024;-83
2021/06/21 05:42:48;;;;;;;7.85;6.72;;;;;;;;;;6249975;22;20011;-83
2021/06/21 05:45:24;;;;;;;7.43;6.57;;;;;;;;;;6249445;22;20528;-83
2021/06/21 05:47:51;;;;;;;7.97;6.70;;;;;;;;;;6276927;22;20023;-83
2021/06/21 05:50:18;;;;;;;7.93;5.88;;;;;;;;;;6275365;22;20024;-84
2021/06/21 05:52:48;;;;;;;7.72;6.22;;;;;;;;;;6248346;22;20318;-82
2021/06/21 05:55:26;;;;;;;10.15;6.38;;;;;;;;;;6255762;22;20032;-81
2021/06/21 05:57:53;;;;;;;6.97;5.30;;;;;;;;;;6267463;22;20028;-83
2021/06/21 06:00:23;;;;;;;7.18;5.30;;;;;;;;;;6291996;22;20205;-84
2021/06/21 06:02:50;;;;;;;5.85;5.15;;;;;;;;;;6253236;22;20260;-85
2021/06/21 06:05:20;;;;;;;10.82;5.65;;;;;;;;;;6254167;22;20085;-83
2021/06/21 06:07:48;;;;;;;6.72;5.60;;;;;;;;;;6280697;22;20030;-83
2021/06/21 06:10:15;;;;;;;8.82;5.18;;;;;;;;;;6253167;22;20034;-84
2021/06/21 06:12:51;;;;;;;6.10;5.43;;;;;;;;;;6249481;22;20401;-83
2021/06/21 06:15:18;;;;;;;7.05;5.00;;;;;;;;;;6273880;22;20077;-83
2021/06/21 06:17:45;;;;;;;6.95;5.75;;;;;;;;;;6275207;22;20148;-83
2021/06/21 06:20:13;;;;;;;7.35;5.60;;;;;;;;;;6246804;22;20035;-83
2021/06/21 06:22:40;;;;;;;9.05;5.90;;;;;;;;;;6248630;22;20030;-83
2021/06/21 06:25:07;;;;;;;8.48;5.85;;;;;;;;;;6249614;22;20026;-83
2021/06/21 06:27:33;;;;;;;6.95;5.82;;;;;;;;;;6247469;22;20420;-83
2021/06/21 06:30:00;;;;;;;7.97;6.03;;;;;;;;;;6249406;22;20090;-84
2021/06/21 06:32:27;;;;;;;6.43;5.45;;;;;;;;;;6243502;23;20408;-84
2021/06/21 06:34:56;;;;;;;8.20;5.22;;;;;;;;;;6241844;23;20373;-84
2021/06/21 06:37:23;;;;;;;8.82;4.90;;;;;;;;;;6239944;23;20390;-83
2021/06/21 06:39:50;;;;;;;10.00;4.85;;;;;;;;;;6242942;23;20034;-83
2021/06/21 06:42:19;;;;;;;8.38;4.75;;;;;;;;;;6242804;23;20028;-82
2021/06/21 06:44:47;;;;;;;6.95;4.88;;;;;;;;;;6245655;23;20083;-83
2021/06/21 06:47:14;;;;;;;5.85;4.82;;;;;;;;;;6246720;23;20025;-84
2021/06/21 06:49:41;;;;;;;5.93;4.57;;;;;;;;;;6249222;23;20024;-83
2021/06/21 06:52:09;;;;;;;5.72;4.18;;;;;;;;;;6248851;22;20028;-83
2021/06/21 06:56:57;;;;;;;6.35;4.43;;;;;;;;;;6248302;23;20093;-83
2021/06/21 06:57:39;;;;;;;6.25;4.07;;;;;;;;;;6245809;22;20040;-83
2021/06/21 07:00:07;;;;;;;5.05;3.30;;;;;;;;;;6248976;22;20019;-83
2021/06/21 07:02:34;;;;;;;4.63;4.03;;;;;;;;;;6247867;22;20034;-83
2021/06/21 07:05:03;;;;;;;4.68;3.78;;;;;;;;;;6249590;23;20024;-84
2021/06/21 07:07:29;;;;;;;6.80;4.35;;;;;;;;;;6250547;22;20092;-83
2021/06/21 07:09:56;;;;;;;5.38;4.10;;;;;;;;;;6246741;23;20059;-82
2021/06/21 07:12:23;;;;;;;3.85;3.45;;;;;;;;;;6250112;22;20032;-84
2021/06/21 07:14:50;;;;;;;4.63;3.63;;;;;;;;;;6248387;23;20054;-83
2021/06/21 07:17:17;;;;;;;7.50;3.58;;;;;;;;;;6246542;23;20220;-83
2021/06/21 07:19:49;;;;;;;4.45;3.30;;;;;;;;;;6250259;23;20086;-82
2021/06/21 07:22:25;;;;;;;5.57;3.13;;;;;;;;;;6247778;23;20025;-82
2021/06/21 07:24:52;;;;;;;;;;;;;;;;;;6250242;22;20080;-83
2021/06/21 07:27:19;;;;;;;3.67;3.22;;;;;;;;;;6247993;23;19974;-84
2021/06/21 07:29:58;;;;;;;3.67;3.15;;;;;;;;;;6246571;23;20103;-83
2021/06/21 07:32:25;;;;;;;3.45;3.15;;;;;;;;;;6254680;22;20207;-83
2021/06/21 07:34:52;;;;;;;3.42;2.75;;;;;;;;;;6258854;22;20038;-83
2021/06/21 07:37:24;;;;;;;3.22;2.80;;;;;;;;;;6258809;22;20024;-82
2021/06/21 07:39:59;;;;;;;3.85;2.47;;;;;;;;;;6261952;22;20023;-82
2021/06/21 07:42:26;;;;;;;3.15;2.85;;;;;;;;;;6284731;22;20113;-82
2021/06/21 07:44:56;;;;;;;3.28;2.97;;;;;;;;;;6261199;22;20076;-82
2021/06/21 07:47:23;;;;;;;4.53;2.90;;;;;;;;;;6260143;22;20024;-83
2021/06/21 07:49:50;;;;;;;5.88;3.08;;;;;;;;;;6282814;22;20019;-82
2021/06/21 07:52:23;;;;;;;6.10;2.72;;;;;;;;;;6255949;22;20031;-83
2021/06/21 07:54:50;;;;;;;4.05;2.30;;;;;;;;;;6279555;22;20024;-83
2021/06/21 07:57:17;;;;;;;3.53;2.30;;;;;;;;;;6249233;22;20027;-83
2021/06/21 07:59:44;;;;;;;2.30;2.10;;;;;;;;;;6248081;22;20030;-83
2021/06/21 08:02:10;;;;;;;2.42;2.00;;;;;;;;;;6279696;22;20079;-83
2021/06/21 08:04:37;;;;;;;1.90;1.80;;;;;;;;;;6252122;22;20094;-82
2021/06/21 08:07:05;;;;;;;2.08;1.88;;;;;;;;;;6281207;22;20082;-82
2021/06/21 08:09:31;;;;;;;3.17;2.70;;;;;;;;;;6291244;22;20071;-83
2021/06/21 08:12:00;;;;;;;2.90;2.10;;;;;;;;;;6261944;22;20451;-82
2021/06/21 08:14:26;;;;;;;4.28;2.00;;;;;;;;;;6275817;22;20038;-82
2021/06/21 08:16:53;;;;;;;2.50;2.25;;;;;;;;;;6247472;22;20274;-82
2021/06/21 08:19:26;;;;;;;2.72;2.28;;;;;;;;;;6250087;22;20030;-82
2021/06/21 08:21:52;;;;;;;2.17;1.98;;;;;;;;;;6276471;22;20015;-81
2021/06/21 08:24:19;;;;;;;2.22;1.83;;;;;;;;;;6249015;22;20030;-82
2021/06/21 08:26:46;;;;;;;2.17;1.98;;;;;;;;;;6275920;22;20054;-82
2021/06/21 08:29:13;;;;;;;5.13;1.80;;;;;;;;;;6253072;22;20064;-81
2021/06/21 08:31:40;;;;;;;3.28;2.13;;;;;;;;;;6279702;22;20023;-82
2021/06/21 08:34:09;;;;;;;2.00;1.83;;;;;;;;;;6253567;22;20364;-82
2021/06/21 08:36:35;;;;;;;1.75;1.50;;;;;;;;;;6252000;22;20390;-82
2021/06/21 08:39:03;;;;;;;1.20;1.10;;;;;;;;;;6278888;22;20035;-83
2021/06/21 08:41:29;;;;;;;1.60;1.50;;;;;;;;;;6276802;22;20024;-82
2021/06/21 08:44:00;;;;;;;3.85;1.85;;;;;;;;;;6280942;22;20328;-81
2021/06/21 08:46:30;;;;;;;1.65;1.30;;;;;;;;;;6276552;22;20023;-82
2021/06/21 08:48:57;;;;;;;2.17;1.52;;;;;;;;;;6251182;22;20047;-81
2021/06/21 08:51:27;;;;;;;1.42;1.33;;;;;;;;;;6278864;22;20023;-82
2021/06/21 08:53:54;;;;;;;1.45;1.30;;;;;;;;;;6250635;22;20039;-81
2021/06/21 08:56:24;;;;;;;1.25;1.15;;;;;;;;;;6252696;22;20348;-82
2021/06/21 08:58:51;;;;;;;1.65;1.23;;;;;;;;;;6280279;22;20173;-80
2021/06/21 09:01:18;;;;;;;1.45;0.90;;;;;;;;;;6256038;22;20067;-82
2021/06/21 09:03:47;;;;;;;3.60;1.30;;;;;;;;;;6250262;22;20077;-82
2021/06/21 09:06:22;;;;;;;2.35;1.23;;;;;;;;;;6274168;22;20023;-82
2021/06/21 09:08:54;;;;;;;3.63;1.40;;;;;;;;;;6276583;22;20031;-81
2021/06/21 09:11:40;;;;;;;2.83;1.30;;;;;;;;;;6248272;22;20024;-82
2021/06/21 09:14:24;;;;;;;1.42;1.30;;;;;;;;;;6246486;22;20062;-80
2021/06/21 09:17:08;;;;;;;3.53;1.30;;;;;;;;;;6272764;22;20400;-80
2021/06/21 09:19:46;;;;;;;1.75;1.10;;;;;;;;;;6275336;22;20024;-79
2021/06/21 09:22:23;;;;;;;1.48;1.10;;;;;;;;;;6274484;22;20115;-79
2021/06/21 09:24:50;;;;;;;1.20;1.10;;;;;;;;;;6247779;22;20028;-81
2021/06/21 09:27:18;;;;;;;1.30;1.20;;;;;;;;;;6279602;22;20055;-81
2021/06/21 09:29:45;;;;;;;2.63;1.15;;;;;;;;;;6251800;22;20019;-80
2021/06/21 09:32:40;;;;;;;0.98;0.95;;;;;;;;;;6248054;23;20039;-81
2021/06/21 09:35:12;;;;;;;4.03;1.50;;;;;;;;;;6247054;23;20040;-81
2021/06/21 09:37:46;;;;;;;1.48;1.10;;;;;;;;;;6254551;23;20405;-81
2021/06/21 09:40:14;;;;;;;;;;;;;;;;;;6248750;23;20066;-80
2021/06/21 09:42:54;;;;;;;4.10;1.60;;;;;;;;;;6248180;22;19938;-82
2021/06/21 09:45:21;;;;;;;1.92;1.27;;;;;;;;;;6251208;22;20020;-82
2021/06/21 09:47:48;;;;;;;3.65;1.00;;;;;;;;;;6246347;23;20103;-82
2021/06/21 09:50:16;;;;;;;0.93;0.93;;;;;;;;;;6246368;23;20042;-82
2021/06/21 09:52:59;;;;;;;1.35;1.20;;;;;;;;;;6248106;23;20340;-82
2021/06/21 09:55:28;;;;;;;2.17;1.15;;;;;;;;;;6251614;22;20057;-81
2021/06/21 09:58:08;;;;;;;1.67;1.02;;;;;;;;;;6251502;22;20338;-81
2021/06/21 10:01:11;;;;;;;1.95;1.05;;;;;;;;;;6249547;23;20024;-82
2021/06/21 10:03:49;;;;;;;0.82;0.82;;;;;;;;;;6251237;23;20024;-82
2021/06/21 10:06:15;;;;;;;1.15;1.08;;;;;;;;;;6253246;23;20035;-82
2021/06/21 10:08:48;;;;;;;1.27;1.10;;;;;;;;;;6251608;23;20136;-82
2021/06/21 10:11:28;;;;;;;1.40;1.30;;;;;;;;;;6251464;23;20051;-81
2021/06/21 10:14:03;;;;;;;1.40;1.30;;;;;;;;;;6248091;23;20099;-82
2021/06/21 10:16:29;;;;;;;2.45;1.85;;;;;;;;;;6253202;23;20036;-81
2021/06/21 10:18:56;;;;;;;3.53;1.30;;;;;;;;;;6253012;22;20058;-81
2021/06/21 10:21:27;;;;;;;1.70;1.60;;;;;;;;;;6253026;23;20028;-81
2021/06/21 10:23:54;;;;;;;2.67;1.60;;;;;;;;;;6249421;23;20066;-81
2021/06/21 10:26:21;;;;;;;1.80;1.63;;;;;;;;;;6247811;23;20024;-81
2021/06/21 10:28:52;;;;;;;2.65;1.40;;;;;;;;;;6248199;22;20050;-82
2021/06/21 10:31:27;;;;;;;1.98;1.85;;;;;;;;;;6251036;22;20028;-82
2021/06/21 10:33:56;;;;;;;1.95;1.77;;;;;;;;;;6251179;22;20106;-81
2021/06/21 10:36:41;;;;;;;3.22;1.83;;;;;;;;;;6261637;22;20294;-82
2021/06/21 10:39:15;;;;;;;2.10;1.80;;;;;;;;;;6290404;22;20220;-82
2021/06/21 10:42:08;;;;;;;2.20;2.00;;;;;;;;;;6259728;22;20034;-82
2021/06/21 10:44:36;;;;;;;2.38;1.92;;;;;;;;;;6240689;22;20028;-82
2021/06/21 10:47:25;;;;;;;2.88;2.22;;;;;;;;;;6248848;22;20124;-82
2021/06/21 10:50:15;;;;;;;2.92;2.63;;;;;;;;;;6252832;22;20028;-82
2021/06/21 10:52:42;;;;;;;3.50;2.90;;;;;;;;;;6251784;22;20027;-81
2021/06/21 10:55:21;;;;;;;3.83;2.58;;;;;;;;;;6247122;22;20054;-82
2021/06/21 10:57:55;;;;;;;3.20;2.80;;;;;;;;;;6247438;22;20035;-83
2021/06/21 11:00:48;;;;;;;3.08;2.78;;;;;;;;;;6263579;22;20016;-82
2021/06/21 11:03:31;;;;;;;3.58;3.28;;;;;;;;;;6249536;22;20044;-82
2021/06/21 11:06:33;;;;;;;4.30;3.00;;;;;;;;;;6279885;22;20027;-81
2021/06/21 11:09:00;;;;;;;3.63;3.25;;;;;;;;;;6155370;22;20023;-82
2021/06/21 11:11:36;;;;;;;3.28;2.97;;;;;;;;;;6255007;22;20067;-81
2021/06/21 11:14:02;;;;;;;;;;;;;;;;;;6280688;22;20027;-82
2021/06/21 11:16:40;;;;;;;4.22;3.83;;;;;;;;;;6281966;22;19983;-82
2021/06/21 11:19:12;;;;;;;4.50;4.10;;;;;;;;;;6255536;22;20028;-83
2021/06/21 11:21:50;;;;;;;4.53;3.75;;;;;;;;;;6257657;22;20024;-84
2021/06/21 11:24:39;;;;;;;4.60;4.20;;;;;;;;;;6283596;22;20024;-83
2021/06/21 11:27:21;;;;;;;4.25;3.88;;;;;;;;;;6284345;22;20080;-84
2021/06/21 11:29:58;;;;;;;4.40;4.00;;;;;;;;;;6289310;22;20023;-84
2021/06/21 11:32:25;;;;;;;4.30;4.00;;;;;;;;;;6292246;22;20024;-85
2021/06/21 11:35:20;;;;;;;4.57;4.18;;;;;;;;;;6286033;22;20023;-84
2021/06/21 11:37:49;;;;;;;5.30;3.90;;;;;;;;;;6281203;22;20034;-84
2021/06/21 11:40:18;;;;;;;4.32;3.80;;;;;;;;;;6251472;22;20034;-84
2021/06/21 11:43:01;;;;;;;4.75;4.35;;;;;;;;;;6251277;22;20077;-84
2021/06/21 11:45:47;;;;;;;5.38;4.40;;;;;;;;;;6253971;22;20024;-84
2021/06/21 11:48:23;;;;;;;5.43;4.10;;;;;;;;;;6258458;22;20139;-83
2021/06/21 11:50:50;;;;;;;4.10;3.60;;;;;;;;;;6256388;22;20083;-84
2021/06/21 11:53:17;;;;;;;4.15;3.50;;;;;;;;;;6258064;22;20041;-83
2021/06/21 11:55:54;;;;;;;3.80;3.40;;;;;;;;;;6257374;22;20324;-83
2021/06/21 11:58:21;;;;;;;;;;;;;;;;;;6284781;22;20055;-84
2021/06/21 12:00:53;;;;;;;4.43;3.95;;;;;;;;;;6262135;22;19931;-86
2021/06/21 12:03:35;;;;;;;4.68;4.05;;;;;;;;;;6260338;22;20024;-83
2021/06/21 12:06:02;;;;;;;6.93;4.53;;;;;;;;;;6257221;22;20030;-83
2021/06/21 12:08:33;;;;;;;5.10;4.32;;;;;;;;;;6261600;22;20012;-84
2021/06/21 12:11:16;;;;;;;5.50;4.30;;;;;;;;;;6261172;22;20023;-83
2021/06/21 12:13:59;;;;;;;2.92;2.72;;;;;;;;;;6288592;22;20027;-84
2021/06/21 12:16:28;;;;;;;5.28;3.88;;;;;;;;;;6288159;22;20118;-84
2021/06/21 12:18:56;;;;;;;4.45;4.05;;;;;;;;;;6258853;22;20239;-83
2021/06/21 12:21:42;;;;;;;3.28;2.50;;;;;;;;;;6257859;22;20027;-86
2021/06/21 12:24:20;;;;;;;2.47;2.28;;;;;;;;;;6257531;22;20027;-82
2021/06/21 12:26:49;;;;;;;3.65;2.33;;;;;;;;;;6257097;22;20035;-82
2021/06/21 12:29:44;;;;;;;2.10;2.00;;;;;;;;;;6251297;22;20368;-83
2021/06/21 12:32:11;;;;;;;2.10;2.00;;;;;;;;;;6240976;23;20500;-81
2021/06/21 12:34:46;;;;;;;2.08;1.98;;;;;;;;;;6243190;23;20021;-81
2021/06/21 12:37:18;;;;;;;1.33;1.23;;;;;;;;;;6244860;22;20024;-82
2021/06/21 12:39:46;;;;;;;1.23;1.10;;;;;;;;;;6243043;23;20024;-81
2021/06/21 12:42:14;;;;;;;2.03;1.50;;;;;;;;;;6245045;23;20020;-81
2021/06/21 12:44:45;;;;;;;1.40;1.30;;;;;;;;;;6243952;23;20103;-81
2021/06/21 12:47:25;;;;;;;1.35;1.20;;;;;;;;;;6249014;23;20302;-82
2021/06/21 12:50:03;;;;;;;1.40;1.30;;;;;;;;;;6262120;22;20054;-82
2021/06/21 12:52:33;;;;;;;1.48;1.38;;;;;;;;;;6248218;23;20028;-82
2021/06/21 12:55:06;;;;;;;1.95;1.70;;;;;;;;;;6246670;22;20020;-82
2021/06/21 12:58:07;;;;;;;2.50;1.60;;;;;;;;;;6248115;23;20103;-83
2021/06/21 13:00:37;;;;;;;3.63;1.02;;;;;;;;;;6245298;23;20044;-81
2021/06/21 13:03:24;;;;;;;1.00;1.00;;;;;;;;;;6246435;23;20031;-83
2021/06/21 13:05:58;;;;;;;3.38;0.82;;;;;;;;;;6251035;22;20070;-82
2021/06/21 13:08:30;;;;;;;0.63;0.63;;;;;;;;;;6247504;23;20059;-82
2021/06/21 13:11:21;;;;;;;1.45;0.98;;;;;;;;;;6250743;22;20461;-82
2021/06/21 13:13:52;;;;;;;1.33;1.10;;;;;;;;;;6247813;23;20028;-83
2021/06/21 13:16:22;;;;;;;1.10;1.00;;;;;;;;;;6249126;22;20062;-82
2021/06/21 13:18:51;;;;;;;1.58;0.70;;;;;;;;;;6244024;23;20119;-82
2021/06/21 13:21:36;;;;;;;1.73;1.08;;;;;;;;;;6246414;23;20180;-82
2021/06/21 13:24:06;;;;;;;1.00;1.00;;;;;;;;;;6250816;23;20108;-82
2021/06/21 13:26:39;;;;;;;1.30;1.02;;;;;;;;;;6244169;23;20024;-83
2021/06/21 13:29:24;;;;;;;1.08;0.90;;;;;;;;;;6244375;23;20144;-83
2021/06/21 13:31:55;;;;;;;0.87;0.83;;;;;;;;;;6246128;23;20038;-83
2021/06/21 13:34:42;;;;;;;1.42;1.33;;;;;;;;;;6251090;22;20032;-82
2021/06/21 13:37:10;;;;;;;1.20;1.10;;;;;;;;;;6248016;23;20367;-83
2021/06/21 13:39:54;;;;;;;1.20;1.00;;;;;;;;;;6248985;22;20028;-84
2021/06/21 13:42:28;;;;;;;1.27;1.17;;;;;;;;;;6249321;23;20042;-83
2021/06/21 13:44:55;;;;;;;1.60;1.50;;;;;;;;;;6248676;23;20028;-83
2021/06/21 13:47:33;;;;;;;1.27;1.17;;;;;;;;;;6250045;22;20035;-83
2021/06/21 13:50:00;;;;;;;1.10;0.98;;;;;;;;;;6248543;23;20031;-82
2021/06/21 13:52:37;;;;;;;1.52;1.27;;;;;;;;;;6248985;22;20032;-82
2021/06/21 13:55:05;;;;;;;2.17;1.45;;;;;;;;;;6248752;22;20036;-82
2021/06/21 13:57:39;;;;;;;1.52;1.42;;;;;;;;;;6223451;23;20330;-83
2021/06/21 14:00:07;;;;;;;1.30;1.20;;;;;;;;;;6247484;23;20036;-83
2021/06/21 14:02:36;;;;;;;1.90;1.30;;;;;;;;;;6249143;23;20066;-84
2021/06/21 14:05:07;;;;;;;1.58;1.48;;;;;;;;;;6252585;22;20051;-82
2021/06/21 14:07:34;;;;;;;1.58;1.48;;;;;;;;;;6252280;23;20401;-83
2021/06/21 14:10:00;;;;;;;2.38;1.98;;;;;;;;;;6249472;22;20101;-83
2021/06/21 14:12:27;;;;;;;1.80;1.70;;;;;;;;;;6249548;22;20027;-82
2021/06/21 14:14:57;;;;;;;3.92;1.75;;;;;;;;;;6249102;23;20019;-83
2021/06/21 14:17:26;;;;;;;2.10;2.00;;;;;;;;;;6245925;22;20088;-82
2021/06/21 14:19:58;;;;;;;2.67;2.47;;;;;;;;;;6241284;23;20024;-82
2021/06/21 14:22:26;;;;;;;4.38;2.67;;;;;;;;;;6243532;22;20024;-81
2021/06/21 14:25:02;;;;;;;;;;;;;;;;;;6242074;22;20036;-80
2021/06/21 14:27:28;;;;;;;3.90;2.97;;;;;;;;;;6242433;22;19927;-80
2021/06/21 14:29:58;;;;;;;5.47;3.13;;;;;;;;;;6238662;23;20091;-80
2021/06/21 14:32:26;;;;;;;5.80;3.65;;;;;;;;;;6269611;22;20213;-81
2021/06/21 14:34:54;;;;;;;3.60;3.30;;;;;;;;;;6289863;22;20031;-85
2021/06/21 14:37:20;;;;;;;4.13;3.15;;;;;;;;;;6266449;22;20098;-86
2021/06/21 14:39:48;;;;;;;3.38;3.08;;;;;;;;;;6259888;22;20118;-86
2021/06/21 14:42:14;;;;;;;4.18;3.65;;;;;;;;;;6288004;22;20030;-83
2021/06/21 14:44:41;;;;;;;3.70;3.13;;;;;;;;;;6286567;22;20027;-84
2021/06/21 14:47:09;;;;;;;4.10;3.53;;;;;;;;;;6286533;22;20028;-84
2021/06/21 14:49:38;;;;;;;3.55;3.25;;;;;;;;;;6264435;22;20030;-84
2021/06/21 14:52:05;;;;;;;3.55;3.25;;;;;;;;;;6259104;22;20070;-84
2021/06/21 14:54:33;;;;;;;4.80;3.92;;;;;;;;;;6253436;22;20034;-83
2021/06/21 14:57:01;;;;;;;4.90;4.50;;;;;;;;;;6256940;22;20074;-83
2021/06/21 14:59:27;;;;;;;5.38;4.88;;;;;;;;;;6253709;22;20034;-82
2021/06/21 15:01:54;;;;;;;6.40;5.80;;;;;;;;;;6280517;22;20020;-82
2021/06/21 15:04:21;;;;;;;6.78;6.18;;;;;;;;;;6279294;22;20110;-83
2021/06/21 15:06:48;;;;;;;6.60;6.00;;;;;;;;;;6253912;22;20170;-83
2021/06/21 15:09:15;;;;;;;10.88;9.77;;;;;;;;;;6280976;22;20023;-83